Time;durP1;ratioP1;P1;durP2;ratioP2;P2;SDS_P1;SDS_P2;PMS_P1;PMS_P2;Temp;Humidity;BMP_temperature;BMP_pressure;BME280_temperature;BME280_humidity;BME280_pressure;Samples;Min_cycle;Max_cycle;Signal;HPM_P1;HPM_P2
2022/02/09 00:00:19;;;;;;;7.60;3.77;;;9.70;99.90;;;;;;5063660;22;20406;-69
2022/02/09 00:08:00;;;;;;;7.80;3.67;;;9.70;99.90;;;;;;5050514;28;20040;-69
2022/02/09 00:10:29;;;;;;;8.00;4.27;;;9.60;99.90;;;;;;5032820;28;20431;-68
2022/02/09 00:15:50;;;;;;;8.77;4.10;;;9.70;99.90;;;;;;5050556;28;20037;-71
2022/02/09 00:23:59;;;;;;;10.73;4.20;;;9.70;99.90;;;;;;5054232;28;20078;-68
2022/02/09 01:38:54;;;;;;;3.93;1.60;;;9.60;99.90;;;;;;5052813;28;20033;-68
2022/02/09 01:51:12;;;;;;;5.00;2.77;;;9.60;99.90;;;;;;5052476;28;20470;-68
2022/02/09 01:55:26;;;;;;;3.27;1.77;;;9.60;99.90;;;;;;5034409;28;20029;-70
2022/02/09 01:57:52;;;;;;;4.90;1.80;;;9.60;99.90;;;;;;5052479;28;20032;-71
2022/02/09 02:00:18;;;;;;;2.90;1.57;;;9.50;99.90;;;;;;5034662;28;20113;-68
2022/02/09 02:02:44;;;;;;;4.27;1.67;;;9.50;99.90;;;;;;5052460;28;20220;-69
2022/02/09 02:05:10;;;;;;;3.00;1.50;;;9.40;99.90;;;;;;5034449;28;20048;-68
2022/02/09 02:10:07;;;;;;;3.60;1.60;;;9.40;99.90;;;;;;5052336;28;20536;-71
2022/02/09 02:12:49;;;;;;;3.83;1.80;;;9.40;99.90;;;;;;5034549;28;20029;-69
2022/02/09 02:15:43;;;;;;;4.67;2.60;;;9.40;99.90;;;;;;5034002;28;20083;-69
2022/02/09 02:18:01;;;;;;;5.10;2.87;;;9.30;99.90;;;;;;5051844;28;20271;-69
2022/02/09 02:20:37;;;;;;;6.53;3.83;;;9.30;99.90;;;;;;5052041;28;20404;-69
2022/02/09 02:23:33;;;;;;;7.97;4.60;;;9.40;99.90;;;;;;5051832;28;20021;-69
2022/02/09 02:26:37;;;;;;;9.93;6.07;;;9.40;99.90;;;;;;5051818;28;20516;-69
2022/02/09 03:11:34;;;;;;;13.33;8.80;;;9.50;99.90;;;;;;5051194;28;20033;-69
2022/02/09 03:14:08;;;;;;;11.53;7.40;;;9.60;99.90;;;;;;5032973;28;20033;-69
2022/02/09 03:16:39;;;;;;;11.10;7.97;;;9.60;99.90;;;;;;5051007;28;20465;-69
2022/02/09 03:24:54;;;;;;;15.27;8.77;;;9.60;99.90;;;;;;5050821;28;20064;-69
2022/02/09 03:43:59;;;;;;;15.03;9.77;;;9.60;99.90;;;;;;5051227;28;20029;-69
2022/02/09 03:58:53;;;;;;;14.73;9.87;;;9.50;99.90;;;;;;5054963;28;20037;-70
2022/02/09 04:01:22;;;;;;;14.77;10.00;;;9.50;99.90;;;;;;5036836;28;20079;-71
2022/02/09 04:03:48;;;;;;;14.07;9.55;;;9.50;99.90;;;;;;5054633;28;20428;-71
2022/02/09 04:06:15;;;;;;;18.27;9.90;;;9.60;99.90;;;;;;5055310;28;20349;-71
2022/02/09 04:08:51;;;;;;;15.20;9.47;;;9.60;99.90;;;;;;5054819;28;20414;-71
2022/02/09 04:11:24;;;;;;;14.50;9.60;;;9.60;99.90;;;;;;5054712;28;20489;-70
2022/02/09 04:38:02;;;;;;;11.80;7.83;;;9.40;99.90;;;;;;5054241;28;20108;-69
2022/02/09 04:41:14;;;;;;;10.83;7.10;;;9.40;99.90;;;;;;5053938;28;20504;-69
2022/02/09 04:51:14;;;;;;;10.83;7.20;;;9.40;99.90;;;;;;5053909;28;20039;-70
2022/02/09 05:18:10;;;;;;;7.80;4.40;;;9.40;99.90;;;;;;5035530;28;20036;-69
2022/02/09 05:26:06;;;;;;;8.33;4.57;;;9.40;99.90;;;;;;5053053;28;20163;-69
2022/02/09 05:28:32;;;;;;;7.57;3.78;;;9.50;99.90;;;;;;5052878;28;20033;-69
2022/02/09 05:30:58;;;;;;;8.03;4.03;;;9.50;99.90;;;;;;5034968;28;20500;-69
2022/02/09 05:33:24;;;;;;;7.47;3.87;;;9.50;99.90;;;;;;5052715;28;20029;-69
2022/02/09 05:35:51;;;;;;;6.70;4.00;;;9.50;99.90;;;;;;5052805;28;20437;-69
2022/02/09 05:38:19;;;;;;;12.27;5.33;;;9.60;99.90;;;;;;5052708;28;20025;-70
2022/02/09 05:40:46;;;;;;;4.13;2.50;;;9.50;99.90;;;;;;5052783;28;20389;-69
2022/02/09 05:43:14;;;;;;;3.83;2.67;;;9.50;99.90;;;;;;5034835;28;20025;-69
2022/02/09 05:50:38;;;;;;;6.37;2.40;;;9.50;99.90;;;;;;5034576;28;20029;-69
2022/02/09 05:55:45;;;;;;;5.50;2.57;;;9.50;99.90;;;;;;5052250;28;20508;-69
2022/02/09 05:58:22;;;;;;;8.20;2.13;;;9.50;99.90;;;;;;5052684;28;20531;-69
2022/02/09 06:00:48;;;;;;;5.23;2.17;;;9.50;99.90;;;;;;5067085;22;20326;-85
2022/02/09 06:03:16;;;;;;;5.20;2.93;;;9.50;99.90;;;;;;5031730;28;20065;-84
2022/02/09 06:05:43;;;;;;;7.77;3.80;;;9.50;99.90;;;;;;5014805;28;20470;-84
2022/02/09 06:08:08;;;;;;;5.80;3.10;;;9.50;99.90;;;;;;5032150;28;20040;-84
2022/02/09 06:10:35;;;;;;;5.80;2.70;;;9.60;99.90;;;;;;5014465;28;20041;-85
2022/02/09 06:13:28;;;;;;;6.33;3.27;;;9.60;99.90;;;;;;5031888;28;20116;-85
2022/02/09 06:19:40;;;;;;;6.80;3.60;;;9.50;99.90;;;;;;5032057;28;20051;-85
2022/02/09 06:21:42;;;;;;;5.57;3.33;;;9.50;99.90;;;;;;5031608;28;20025;-85
2022/02/09 06:24:07;;;;;;;7.50;4.53;;;9.60;99.90;;;;;;5031773;28;20072;-85
2022/02/09 06:26:33;;;;;;;8.70;4.37;;;9.60;99.90;;;;;;5031892;28;20033;-85
2022/02/09 06:28:59;;;;;;;8.23;3.80;;;9.60;99.90;;;;;;5031732;28;20028;-85
2022/02/09 06:31:25;;;;;;;9.93;4.70;;;9.60;99.90;;;;;;5031760;28;20052;-85
2022/02/09 06:33:51;;;;;;;10.73;5.70;;;9.60;99.90;;;;;;5013859;28;20041;-86
2022/02/09 06:36:22;;;;;;;9.13;5.57;;;9.60;99.90;;;;;;5031552;28;20044;-85
2022/02/09 06:38:48;;;;;;;10.10;6.17;;;9.60;99.90;;;;;;5013900;28;20033;-86
2022/02/09 06:41:14;;;;;;;11.37;5.93;;;9.50;99.90;;;;;;5013631;28;20034;-86
2022/02/09 06:43:40;;;;;;;11.20;6.43;;;9.50;99.90;;;;;;5031330;28;20034;-85
2022/02/09 06:46:06;;;;;;;12.03;6.30;;;9.50;99.90;;;;;;5031469;28;20033;-85
2022/02/09 06:48:33;;;;;;;11.43;7.07;;;9.50;99.90;;;;;;5031373;28;20052;-85
2022/02/09 06:51:07;;;;;;;10.50;6.70;;;9.50;99.90;;;;;;5031475;28;20406;-85
2022/02/09 06:53:40;;;;;;;11.97;7.23;;;9.50;99.90;;;;;;5031036;28;20029;-85
2022/02/09 06:56:06;;;;;;;13.60;7.30;;;9.50;99.90;;;;;;5031451;28;20041;-86
2022/02/09 07:01:03;;;;;;;13.40;8.00;;;9.60;99.90;;;;;;5030908;28;20123;-85
2022/02/09 07:03:29;;;;;;;15.30;8.00;;;9.50;99.90;;;;;;5031198;28;20141;-85
2022/02/09 07:05:55;;;;;;;10.90;6.77;;;9.60;99.90;;;;;;5031189;28;20537;-85
2022/02/09 07:08:20;;;;;;;13.70;7.33;;;9.60;99.90;;;;;;5031300;28;20030;-85
2022/02/09 07:10:47;;;;;;;14.23;8.43;;;9.60;99.90;;;;;;5031275;28;20120;-85
2022/02/09 07:13:13;;;;;;;18.37;8.50;;;9.60;99.90;;;;;;5013013;28;20581;-85
2022/02/09 07:15:47;;;;;;;14.00;8.27;;;9.50;99.90;;;;;;5036597;28;20049;-85
2022/02/09 07:18:16;;;;;;;17.13;8.70;;;9.50;99.90;;;;;;5032484;28;20032;-85
2022/02/09 07:23:19;;;;;;;14.00;8.53;;;9.50;99.90;;;;;;5031281;28;20049;-85
2022/02/09 07:25:49;;;;;;;12.87;7.37;;;9.60;99.90;;;;;;5031444;28;20132;-85
2022/02/09 07:28:15;;;;;;;9.90;6.77;;;9.60;99.90;;;;;;5013067;28;20033;-85
2022/02/09 07:30:43;;;;;;;10.33;6.60;;;9.60;99.90;;;;;;5030329;28;20037;-85
2022/02/09 07:33:09;;;;;;;13.37;7.33;;;9.60;99.90;;;;;;5030746;28;20075;-85
2022/02/09 07:35:38;;;;;;;12.90;7.53;;;9.70;99.90;;;;;;5012940;28;20041;-85
2022/02/09 07:38:04;;;;;;;13.10;7.47;;;9.60;99.90;;;;;;5013945;28;20030;-85
2022/02/09 07:40:30;;;;;;;12.93;7.67;;;9.70;99.90;;;;;;5030718;28;20037;-85
2022/02/09 07:43:02;;;;;;;15.10;8.77;;;9.60;99.90;;;;;;5030754;28;20064;-85
2022/02/09 07:45:58;;;;;;;17.07;8.23;;;9.60;99.90;;;;;;5013111;28;20044;-85
2022/02/09 07:51:26;;;;;;;15.70;9.67;;;9.70;99.90;;;;;;5030652;28;20041;-85
2022/02/09 07:53:59;;;;;;;14.87;8.93;;;9.70;99.90;;;;;;5030528;28;20065;-85
2022/02/09 07:56:33;;;;;;;14.67;9.30;;;9.70;99.90;;;;;;5012825;28;20397;-85
2022/02/09 07:59:01;;;;;;;16.23;9.60;;;9.70;99.90;;;;;;5030523;28;20057;-85
2022/02/09 08:01:27;;;;;;;19.00;10.23;;;9.70;99.90;;;;;;5030255;28;20540;-85
2022/02/09 08:03:53;;;;;;;21.00;11.30;;;9.60;99.90;;;;;;5030449;28;20109;-85
2022/02/09 08:06:24;;;;;;;18.27;10.40;;;9.70;99.90;;;;;;5030463;28;20117;-85
2022/02/09 08:08:57;;;;;;;18.03;9.87;;;9.70;99.90;;;;;;5030482;28;20083;-85
2022/02/09 08:23:33;;;;;;;23.70;12.33;;;9.70;99.90;;;;;;5030267;28;20032;-85
2022/02/09 08:32:43;;;;;;;22.83;12.20;;;9.80;99.90;;;;;;5030143;28;20029;-85
2022/02/09 08:35:10;;;;;;;27.17;11.67;;;9.80;99.90;;;;;;5012129;28;20033;-85
2022/02/09 08:37:36;;;;;;;21.57;11.57;;;9.80;99.90;;;;;;5030084;28;20064;-85
2022/02/09 08:40:05;;;;;;;19.30;10.70;;;9.80;99.90;;;;;;5030041;28;20057;-85
2022/02/09 08:42:33;;;;;;;20.35;10.07;;;9.80;99.90;;;;;;5030543;28;20064;-85
2022/02/09 08:45:00;;;;;;;18.10;9.93;;;9.80;99.90;;;;;;5033377;28;20116;-85
2022/02/09 08:47:26;;;;;;;15.87;8.70;;;9.80;99.90;;;;;;5033733;28;20410;-86
2022/02/09 08:49:52;;;;;;;14.67;7.87;;;9.80;99.90;;;;;;5033694;28;20453;-85
2022/02/09 08:52:18;;;;;;;12.97;7.60;;;9.80;99.90;;;;;;5033551;28;20067;-85
2022/02/09 08:54:44;;;;;;;11.30;6.80;;;9.90;99.90;;;;;;5015418;28;20456;-85
2022/02/09 08:57:11;;;;;;;10.47;6.73;;;9.90;99.90;;;;;;5015758;28;20037;-85
2022/02/09 08:59:39;;;;;;;13.43;6.90;;;9.90;99.90;;;;;;5015781;28;20030;-85
2022/02/09 09:02:08;;;;;;;11.20;6.53;;;9.90;99.90;;;;;;5015563;28;20029;-85
2022/02/09 09:04:39;;;;;;;12.87;6.40;;;10.00;99.90;;;;;;5033727;28;20104;-85
2022/02/09 09:07:14;;;;;;;16.53;6.67;;;9.90;99.90;;;;;;5017505;28;20102;-85
2022/02/09 09:58:17;;;;;;;6.67;3.33;;;10.40;99.90;;;;;;5032394;28;20091;-85
2022/02/09 10:34:26;;;;;;;7.77;4.20;;;10.60;99.90;;;;;;5031900;28;20488;-85
2022/02/09 10:37:02;;;;;;;9.87;4.80;;;10.60;99.90;;;;;;5031831;28;20064;-84
2022/02/09 10:39:43;;;;;;;10.87;5.03;;;10.60;99.90;;;;;;5031983;28;20033;-84
2022/02/09 10:42:18;;;;;;;12.60;5.10;;;10.60;99.90;;;;;;5031871;28;20047;-84
2022/02/09 10:44:55;;;;;;;10.00;5.00;;;10.70;99.90;;;;;;5013782;28;20104;-84
2022/02/09 10:47:34;;;;;;;10.53;4.67;;;10.70;99.90;;;;;;5031567;28;20048;-84
2022/02/09 10:50:17;;;;;;;10.98;4.80;;;10.70;99.90;;;;;;5031517;28;20474;-85
2022/02/09 10:52:49;;;;;;;10.77;5.23;;;10.70;99.90;;;;;;5031443;28;20466;-84
2022/02/09 10:55:27;;;;;;;10.53;5.00;;;10.70;99.90;;;;;;5031092;28;20030;-84
2022/02/09 10:57:54;;;;;;;10.95;5.60;;;10.70;99.90;;;;;;5013780;28;20043;-84
2022/02/09 11:00:20;;;;;;;10.20;5.77;;;10.60;99.90;;;;;;5031204;28;20652;-84
2022/02/09 11:02:51;;;;;;;9.00;5.60;;;10.70;99.90;;;;;;5031635;28;20120;-84
2022/02/09 11:05:19;;;;;;;8.90;5.07;;;10.70;99.90;;;;;;5030268;28;20060;-85
2022/02/09 11:07:49;;;;;;;9.37;5.57;;;10.80;99.90;;;;;;5031256;28;20034;-85
2022/02/09 11:10:16;;;;;;;9.87;5.67;;;10.80;99.90;;;;;;5031137;28;20029;-85
2022/02/09 11:12:43;;;;;;;10.93;5.67;;;10.80;99.90;;;;;;5013395;28;20033;-84
2022/02/09 11:15:10;;;;;;;10.80;4.63;;;10.80;99.90;;;;;;5030808;28;20029;-84
2022/02/09 11:17:45;;;;;;;9.17;4.50;;;10.80;99.90;;;;;;5013559;28;20021;-84
2022/02/09 11:20:11;;;;;;;7.77;4.63;;;10.80;99.90;;;;;;5031326;28;20042;-84
2022/02/09 11:22:42;;;;;;;11.83;5.90;;;10.70;99.90;;;;;;5013470;28;20387;-84
2022/02/09 11:25:11;;;;;;;9.83;5.63;;;10.60;99.90;;;;;;5013023;28;20076;-84
2022/02/09 11:27:42;;;;;;;12.20;5.20;;;10.60;99.90;;;;;;5030855;28;20424;-85
2022/02/09 11:30:33;;;;;;;11.63;5.03;;;10.60;99.90;;;;;;5013164;28;20068;-85
2022/02/09 11:33:08;;;;;;;9.83;4.30;;;10.50;99.90;;;;;;5031105;28;20037;-84
2022/02/09 11:35:41;;;;;;;8.57;4.00;;;10.50;99.90;;;;;;5030691;28;20282;-85
2022/02/09 11:38:19;;;;;;;7.90;4.60;;;10.50;99.90;;;;;;5030792;28;20088;-85
2022/02/09 11:43:30;;;;;;;8.93;4.40;;;10.50;99.90;;;;;;5030673;28;20399;-84
2022/02/09 11:46:21;;;;;;;7.17;4.10;;;10.50;99.90;;;;;;5030870;28;20037;-84
2022/02/09 12:10:53;;;;;;;10.90;4.97;;;10.60;99.90;;;;;;5050554;28;20494;-70
2022/02/09 12:13:56;;;;;;;11.10;5.17;;;10.60;99.90;;;;;;5050343;28;20408;-70
2022/02/09 12:16:36;;;;;;;9.33;5.30;;;10.60;99.90;;;;;;5050632;28;20036;-70
2022/02/09 12:19:07;;;;;;;9.47;5.10;;;10.50;99.90;;;;;;5054189;28;20025;-70
2022/02/09 12:22:04;;;;;;;10.03;5.50;;;10.50;99.90;;;;;;5054247;28;20065;-70
2022/02/09 12:24:32;;;;;;;8.97;4.97;;;10.50;99.90;;;;;;5054067;28;20025;-70
2022/02/09 12:27:05;;;;;;;8.93;4.93;;;10.50;99.90;;;;;;5054131;28;20501;-70
2022/02/09 12:29:37;;;;;;;10.10;4.50;;;10.50;99.90;;;;;;5054247;28;20059;-69
2022/02/09 12:32:25;;;;;;;8.33;4.23;;;10.50;99.90;;;;;;5054355;28;20033;-70
2022/02/09 12:34:56;;;;;;;8.67;4.40;;;10.50;99.90;;;;;;5035895;28;20059;-71
2022/02/09 12:37:23;;;;;;;8.80;4.53;;;10.50;99.90;;;;;;5053943;28;20389;-70
2022/02/09 12:40:03;;;;;;;11.37;4.53;;;10.50;99.90;;;;;;5054186;28;20107;-70
2022/02/09 12:42:32;;;;;;;8.00;4.30;;;10.50;99.90;;;;;;5053809;28;20375;-70
2022/02/09 12:45:04;;;;;;;7.45;3.47;;;10.50;99.90;;;;;;5053542;28;20134;-70
2022/02/09 12:47:38;;;;;;;7.27;3.67;;;10.60;99.90;;;;;;5053837;28;20029;-70
2022/02/09 12:50:15;;;;;;;7.03;3.43;;;10.60;99.90;;;;;;5035960;28;20044;-70
2022/02/09 12:52:43;;;;;;;6.53;2.90;;;10.60;99.90;;;;;;5053717;28;20473;-70
2022/02/09 12:55:13;;;;;;;8.23;3.80;;;10.60;99.90;;;;;;5053163;28;20041;-70
2022/02/09 12:57:57;;;;;;;5.93;3.53;;;10.70;99.90;;;;;;5053481;28;20055;-70
2022/02/09 13:00:23;;;;;;;8.53;3.47;;;10.70;99.90;;;;;;5035830;28;20436;-70
2022/02/09 13:02:50;;;;;;;8.70;3.87;;;10.60;99.90;;;;;;5035256;28;20029;-70
2022/02/09 13:05:16;;;;;;;7.33;3.93;;;10.70;99.90;;;;;;5053121;28;20029;-70
2022/02/09 13:07:53;;;;;;;8.97;4.40;;;10.80;99.90;;;;;;5053114;28;20028;-70
2022/02/09 13:10:25;;;;;;;9.20;4.10;;;10.80;99.90;;;;;;5053320;28;20037;-70
2022/02/09 13:12:52;;;;;;;23.87;13.13;;;10.80;99.90;;;;;;5053140;28;20037;-70
2022/02/09 13:15:23;;;;;;;16.77;9.93;;;10.80;99.90;;;;;;5052906;28;20490;-70
2022/02/09 13:52:06;;;;;;;6.10;3.60;;;10.90;99.90;;;;;;5034591;28;20324;-71
2022/02/09 14:03:03;;;;;;;7.33;3.27;;;11.00;99.90;;;;;;5052169;28;20064;-71
2022/02/09 14:11:29;;;;;;;5.13;2.60;;;10.90;99.90;;;;;;5034318;28;20125;-71
2022/02/09 14:58:25;;;;;;;5.60;2.47;;;10.80;99.90;;;;;;5033412;28;20107;-71
2022/02/09 15:06:25;;;;;;;5.63;2.80;;;10.90;99.90;;;;;;5033404;28;20037;-71
2022/02/09 15:11:35;;;;;;;5.37;2.17;;;10.90;99.90;;;;;;5051053;28;20417;-70
2022/02/09 15:14:20;;;;;;;4.83;2.50;;;11.00;99.90;;;;;;5033171;28;20039;-70
2022/02/09 15:17:08;;;;;;;6.67;1.90;;;11.00;99.90;;;;;;5051069;28;20549;-71
2022/02/09 15:24:34;;;;;;;5.40;1.77;;;11.00;99.90;;;;;;5050838;28;20485;-70
2022/02/09 15:27:02;;;;;;;5.10;1.80;;;11.00;99.90;;;;;;5051003;28;20102;-71
2022/02/09 15:29:28;;;;;;;8.60;5.27;;;11.00;99.90;;;;;;5050797;28;20048;-71
2022/02/09 15:32:01;;;;;;;4.57;2.10;;;11.10;99.90;;;;;;5051066;28;20079;-71
2022/02/09 15:34:31;;;;;;;4.07;2.30;;;11.10;99.90;;;;;;5050670;28;20565;-70
2022/02/09 15:37:05;;;;;;;5.10;1.70;;;11.10;99.90;;;;;;5033051;28;20040;-71
2022/02/09 15:39:36;;;;;;;3.87;1.47;;;11.10;99.90;;;;;;5050891;28;20040;-71
2022/02/09 16:09:24;;;;;;;5.70;1.90;;;11.10;99.90;;;;;;5015899;28;20409;-71
2022/02/09 16:46:39;;;;;;;4.47;2.30;;;10.70;99.90;;;;;;5035756;28;20044;-71
2022/02/09 16:49:10;;;;;;;8.53;2.53;;;10.70;99.90;;;;;;5053850;28;20492;-71
2022/02/09 16:52:24;;;;;;;5.50;2.63;;;10.60;99.90;;;;;;5035988;28;20038;-71
2022/02/09 17:21:21;;;;;;;6.72;1.98;;;10.60;99.90;;;;;;5053236;28;20033;-71
2022/02/09 17:23:49;;;;;;;3.23;1.77;;;10.60;99.90;;;;;;5052896;28;20108;-70
2022/02/09 17:26:15;;;;;;;6.40;2.50;;;10.60;99.90;;;;;;5034920;28;20029;-71
2022/02/09 17:28:46;;;;;;;6.30;2.50;;;10.60;99.90;;;;;;5052958;28;20044;-72
2022/02/09 17:55:56;;;;;;;6.10;2.70;;;10.50;99.90;;;;;;5053512;28;20037;-71
2022/02/09 17:58:29;;;;;;;5.73;2.67;;;10.50;99.90;;;;;;5052524;28;20490;-71
2022/02/09 18:03:44;;;;;;;6.53;2.67;;;10.50;99.90;;;;;;5010577;28;20100;-67
2022/02/09 18:29:56;;;;;;;6.73;3.17;;;10.40;99.90;;;;;;5012365;28;20057;-68
2022/02/09 18:43:12;;;;;;;10.93;3.80;;;10.40;99.90;;;;;;4975264;28;20047;-68
2022/02/09 18:45:44;;;;;;;6.20;2.95;;;10.40;99.90;;;;;;5012164;28;20025;-67
2022/02/09 18:56:59;;;;;;;8.47;3.50;;;10.40;99.90;;;;;;4994077;28;20427;-67
2022/02/09 18:59:33;;;;;;;10.67;3.60;;;10.30;99.90;;;;;;5011566;28;20097;-67
2022/02/09 19:07:20;;;;;;;9.57;3.30;;;10.30;99.90;;;;;;5011680;28;20030;-67
2022/02/09 19:17:58;;;;;;;7.43;3.70;;;10.30;99.90;;;;;;5011265;28;20108;-68
2022/02/09 19:26:37;;;;;;;9.27;4.23;;;10.30;99.90;;;;;;5010760;28;20092;-67
2022/02/09 19:32:14;;;;;;;7.28;3.45;;;10.30;99.90;;;;;;4993831;28;20034;-68
2022/02/09 19:48:10;;;;;;;6.77;3.20;;;10.20;99.90;;;;;;4989669;28;20038;-67
2022/02/09 19:56:11;;;;;;;6.60;3.60;;;10.20;99.90;;;;;;5011074;28;20062;-67
2022/02/09 19:58:43;;;;;;;7.80;4.20;;;10.20;99.90;;;;;;5010970;28;20053;-67
2022/02/09 20:01:14;;;;;;;7.73;4.07;;;10.10;99.90;;;;;;5011188;28;20053;-67
2022/02/09 20:03:41;;;;;;;10.20;4.80;;;10.10;99.90;;;;;;5010732;28;20034;-67
2022/02/09 20:06:07;;;;;;;8.00;4.47;;;10.10;99.90;;;;;;5010932;28;20056;-66
2022/02/09 20:08:38;;;;;;;8.33;4.37;;;10.00;99.90;;;;;;5011041;28;20081;-67
2022/02/09 20:11:14;;;;;;;11.80;5.97;;;10.00;99.90;;;;;;5011061;28;20486;-67
2022/02/09 20:13:41;;;;;;;13.37;7.20;;;10.00;99.90;;;;;;5010929;28;20405;-67
2022/02/09 20:16:07;;;;;;;12.17;7.13;;;9.90;99.90;;;;;;5010845;28;20128;-67
2022/02/09 20:18:33;;;;;;;10.83;6.67;;;9.90;99.90;;;;;;5011089;28;20106;-67
2022/02/09 20:21:00;;;;;;;14.67;7.33;;;9.90;99.90;;;;;;4977059;28;20371;-67
2022/02/09 20:23:27;;;;;;;10.80;6.30;;;9.90;99.90;;;;;;4993046;28;20194;-68
2022/02/09 20:25:54;;;;;;;12.03;5.80;;;9.80;99.90;;;;;;5010803;28;20037;-67
2022/02/09 20:28:22;;;;;;;9.63;6.00;;;9.80;99.90;;;;;;5010885;28;20075;-68
2022/02/09 20:30:55;;;;;;;11.63;5.63;;;9.80;99.90;;;;;;5010698;28;20379;-67
2022/02/09 20:33:27;;;;;;;13.97;4.93;;;9.80;99.90;;;;;;5010648;28;20030;-67
2022/02/09 20:35:53;;;;;;;9.50;4.73;;;9.80;99.90;;;;;;5010627;28;20479;-66
2022/02/09 20:38:24;;;;;;;9.03;4.10;;;9.80;99.90;;;;;;5012295;28;20026;-67
2022/02/09 20:41:00;;;;;;;7.63;3.57;;;9.80;99.90;;;;;;5014217;28;20026;-67
2022/02/09 20:43:27;;;;;;;7.97;3.47;;;9.80;99.90;;;;;;5013955;28;20030;-68
2022/02/09 20:46:01;;;;;;;6.17;3.60;;;9.80;99.90;;;;;;5014198;28;20034;-67
2022/02/09 20:48:28;;;;;;;8.03;3.70;;;9.80;99.90;;;;;;4996526;28;20046;-67
2022/02/09 20:50:56;;;;;;;9.20;3.80;;;9.80;99.90;;;;;;5014154;28;20041;-67
2022/02/09 20:53:23;;;;;;;10.83;4.50;;;9.80;99.90;;;;;;5013738;28;20551;-67
2022/02/09 20:55:49;;;;;;;10.40;4.87;;;9.70;99.90;;;;;;5013797;28;20037;-67
2022/02/09 20:58:17;;;;;;;10.63;5.13;;;9.70;99.90;;;;;;5014100;28;20076;-67
2022/02/09 21:04:02;;;;;;;11.60;4.50;;;9.70;99.90;;;;;;5013618;28;20126;-67
2022/02/09 21:06:54;;;;;;;13.67;5.03;;;9.70;99.90;;;;;;5006274;28;20049;-67
2022/02/09 21:19:16;;;;;;;13.32;5.45;;;9.70;99.90;;;;;;5013899;28;20022;-68
2022/02/09 21:24:28;;;;;;;11.13;5.17;;;9.60;99.90;;;;;;5013432;28;20030;-68
2022/02/09 21:56:27;;;;;;;12.87;5.20;;;9.60;99.90;;;;;;5012739;28;20060;-68
2022/02/09 22:01:36;;;;;;;10.13;5.00;;;9.60;99.90;;;;;;5012854;28;20033;-68
2022/02/09 22:24:07;;;;;;;12.47;5.50;;;9.50;99.90;;;;;;5012222;28;20037;-68
2022/02/09 22:28:27;;;;;;;12.13;5.30;;;9.50;99.90;;;;;;5012312;28;20070;-67
2022/02/09 22:55:20;;;;;;;11.40;5.00;;;9.50;99.90;;;;;;5011997;28;20041;-68
2022/02/09 22:58:03;;;;;;;14.57;5.63;;;9.50;99.90;;;;;;5011801;28;20117;-68
2022/02/09 23:03:21;;;;;;;13.40;5.83;;;9.50;99.90;;;;;;5011107;28;20175;-68
2022/02/09 23:08:41;;;;;;;13.60;5.83;;;9.50;99.90;;;;;;5011628;28;20399;-68
2022/02/09 23:24:40;;;;;;;13.00;5.27;;;9.50;99.90;;;;;;5011145;28;20475;-68
